createdAt,value
2018-03-01T00:00:05.543Z,1015.43
2018-03-01T00:05:02.823Z,1015.52
2018-03-01T00:10:03.381Z,1015.36
2018-03-01T00:15:02.894Z,1015.37
2018-03-01T00:20:03.467Z,1015.29
2018-03-01T00:25:03.037Z,1015.29
2018-03-01T00:30:03.562Z,1015.28
2018-03-01T00:35:03.109Z,1015.14
2018-03-01T00:40:03.116Z,1015.23
2018-03-01T00:45:03.637Z,1015.17
2018-03-01T00:50:03.125Z,1015.14
2018-03-01T00:55:03.604Z,1015.04
2018-03-01T01:00:03.024Z,1015.06
2018-03-01T01:05:03.290Z,1014.98
2018-03-01T01:10:02.837Z,1014.88
2018-03-01T01:15:03.351Z,1014.88
2018-03-01T01:20:02.952Z,1014.8
2018-03-01T01:25:03.427Z,1014.64
2018-03-01T01:30:02.896Z,1014.63
2018-03-01T01:35:03.465Z,1014.41
2018-03-01T01:40:02.964Z,1014.4
2018-03-01T01:45:03.478Z,1014.43
2018-03-01T01:50:02.951Z,1014.34
2018-03-01T01:55:03.534Z,1014.34
2018-03-01T02:00:03.075Z,1014.22
2018-03-01T02:05:03.540Z,1014.07
2018-03-01T02:10:03.040Z,1013.97
2018-03-01T02:15:03.554Z,1013.83
2018-03-01T02:20:03.151Z,1013.62
2018-03-01T02:25:03.663Z,1013.59
2018-03-01T02:30:03.143Z,1013.41
2018-03-01T02:35:03.612Z,1013.29
2018-03-01T02:40:03.119Z,1013.3
2018-03-01T02:45:03.647Z,1013.26
2018-03-01T02:50:03.153Z,1013.03
2018-03-01T02:55:03.598Z,1013.01
2018-03-01T03:00:03.106Z,1012.9
2018-03-01T03:05:03.642Z,1012.87
2018-03-01T03:10:03.209Z,1012.7
2018-03-01T03:15:02.730Z,1012.58
2018-03-01T03:20:03.207Z,1012.43
2018-03-01T03:25:02.750Z,1012.59
2018-03-01T03:30:03.263Z,1012.95
2018-03-01T03:35:02.811Z,1012.69
2018-03-01T03:40:03.309Z,1012.77
2018-03-01T03:45:02.741Z,1012.66
2018-03-01T03:50:03.320Z,1012.39
2018-03-01T03:55:02.980Z,1012.42
2018-03-01T04:00:03.512Z,1012.52
2018-03-01T04:05:02.915Z,1012.32
2018-03-01T04:10:03.515Z,1012.32
2018-03-01T04:15:03.036Z,1012.14
2018-03-01T04:20:03.599Z,1011.99
2018-03-01T04:25:03.127Z,1011.85
2018-03-01T04:30:03.609Z,1011.9
2018-03-01T04:35:03.063Z,1011.95
2018-03-01T04:40:03.591Z,1011.86
2018-03-01T04:45:03.073Z,1011.77
2018-03-01T04:50:03.663Z,1011.78
2018-03-01T04:55:03.127Z,1011.72
2018-03-01T05:00:03.530Z,1011.8
2018-03-01T05:05:02.948Z,1011.89
2018-03-01T05:10:03.447Z,1011.96
2018-03-01T05:15:02.961Z,1011.95
2018-03-01T05:20:03.387Z,1011.92
2018-03-01T05:25:02.868Z,1011.96
2018-03-01T05:30:02.945Z,1011.89
2018-03-01T05:35:03.447Z,1011.76
2018-03-01T05:40:02.902Z,1011.75
2018-03-01T05:45:03.449Z,1011.58
2018-03-01T05:50:02.940Z,1011.49
2018-03-01T05:55:03.604Z,1011.58
2018-03-01T06:00:03.177Z,1011.41
2018-03-01T06:05:03.620Z,1011.42
2018-03-01T06:10:03.146Z,1011.5
2018-03-01T06:15:03.633Z,1011.5
2018-03-01T06:20:03.121Z,1011.55
2018-03-01T06:25:03.582Z,1011.43
2018-03-01T06:30:03.078Z,1011.43
2018-03-01T06:35:03.613Z,1011.31
2018-03-01T06:40:03.162Z,1011.3
2018-03-01T06:45:03.675Z,1011.24
2018-03-01T06:50:03.163Z,1011.13
2018-03-01T06:55:03.655Z,1011.2
2018-03-01T07:00:03.411Z,1011.07
2018-03-01T07:05:02.879Z,1011.04
2018-03-01T07:10:03.411Z,1011.07
2018-03-01T07:15:02.847Z,1011.09
2018-03-01T07:20:03.420Z,1011.14
2018-03-01T07:25:02.902Z,1010.99
2018-03-01T07:30:03.350Z,1011.05
2018-03-01T07:35:02.895Z,1011.07
2018-03-01T07:40:03.472Z,1011.03
2018-03-01T07:45:02.937Z,1011.01
2018-03-01T07:50:03.373Z,1011.07
2018-03-01T07:55:02.876Z,1010.96
2018-03-01T08:00:03.379Z,1010.99
2018-03-01T08:05:02.876Z,1010.73
2018-03-01T08:10:03.352Z,1010.61
2018-03-01T08:15:02.808Z,1010.64
2018-03-01T08:20:03.270Z,1010.53
2018-03-01T08:25:02.812Z,1010.5
2018-03-01T08:30:03.618Z,1010.44
2018-03-01T08:35:03.220Z,1010.38
2018-03-01T08:40:02.747Z,1010.38
2018-03-01T08:45:03.252Z,1010.29
2018-03-01T08:50:02.731Z,1010.22
2018-03-01T08:55:03.193Z,1010.21
2018-03-01T09:00:02.678Z,1010.19
2018-03-01T09:05:03.161Z,1010.09
2018-03-01T09:10:03.636Z,1010.24
2018-03-01T09:15:03.137Z,1010.01
2018-03-01T09:20:03.661Z,1010.07
2018-03-01T09:25:03.164Z,1009.93
2018-03-01T09:30:03.604Z,1009.87
2018-03-01T09:35:03.124Z,1009.76
2018-03-01T09:40:03.654Z,1009.86
2018-03-01T09:45:03.137Z,1009.8
2018-03-01T09:50:03.679Z,1009.7
2018-03-01T09:55:03.205Z,1009.67
2018-03-01T10:00:03.688Z,1009.6
2018-03-01T10:05:03.279Z,1009.59
2018-03-01T10:10:02.867Z,1009.43
2018-03-01T10:15:03.364Z,1009.36
2018-03-01T10:20:03.000Z,1009.33
2018-03-01T10:25:03.447Z,1009.19
2018-03-01T10:30:02.938Z,1009.05
2018-03-01T10:35:03.403Z,1009.07
2018-03-01T10:40:02.929Z,1009.09
2018-03-01T10:45:03.379Z,1009.04
2018-03-01T10:50:02.900Z,1008.99
2018-03-01T10:55:03.386Z,1009.04
2018-03-01T11:00:02.825Z,1008.69
2018-03-01T11:05:03.132Z,1008.72
2018-03-01T11:10:03.676Z,1008.65
2018-03-01T11:15:03.152Z,1008.41
2018-03-01T11:20:03.697Z,1008.39
2018-03-01T11:25:03.181Z,1008.39
2018-03-01T11:30:02.722Z,1008.19
2018-03-01T11:35:03.414Z,1008.06
2018-03-01T11:40:03.043Z,1007.91
2018-03-01T11:45:03.559Z,1007.8
2018-03-01T11:50:03.032Z,1007.84
2018-03-01T11:55:03.522Z,1007.78
2018-03-01T12:00:03.007Z,1007.69
2018-03-01T12:05:02.948Z,1007.54
2018-03-01T12:10:03.542Z,1007.61
2018-03-01T12:15:03.059Z,1007.39
2018-03-01T12:20:03.734Z,1007.4
2018-03-01T12:25:03.236Z,1007.3
2018-03-01T12:30:02.674Z,1007.23
2018-03-01T12:35:03.155Z,1007.06
2018-03-01T12:40:02.718Z,1006.93
2018-03-01T12:45:03.175Z,1006.85
2018-03-01T12:50:02.688Z,1006.64
2018-03-01T12:55:03.219Z,1006.52
2018-03-01T13:00:03.675Z,1006.46
2018-03-01T13:05:03.173Z,1006.51
2018-03-01T13:10:02.788Z,1006.45
2018-03-01T13:15:03.640Z,1006.39
2018-03-01T13:20:03.147Z,1006.34
2018-03-01T13:25:03.717Z,1006.31
2018-03-01T13:30:03.202Z,1006.25
2018-03-01T13:35:02.673Z,1006.15
2018-03-01T13:40:03.183Z,1006.19
2018-03-01T13:45:03.677Z,1006.3
2018-03-01T13:50:03.219Z,1006.11
2018-03-01T13:55:02.728Z,1006.05
2018-03-01T14:00:03.221Z,1005.94
2018-03-01T14:05:02.790Z,1005.82
2018-03-01T14:10:03.389Z,1005.87
2018-03-01T14:15:02.891Z,1005.85
2018-03-01T14:20:03.468Z,1005.61
2018-03-01T14:25:02.876Z,1005.63
2018-03-01T14:30:03.371Z,1005.5
2018-03-01T14:35:02.788Z,1005.39
2018-03-01T14:40:03.328Z,1005.53
2018-03-01T14:45:02.779Z,1005.45
2018-03-01T14:50:03.281Z,1005.37
2018-03-01T14:55:02.822Z,1005.32
2018-03-01T15:00:03.330Z,1005.36
2018-03-01T15:05:02.766Z,1005.11
2018-03-01T15:10:03.371Z,1005.27
2018-03-01T15:15:02.932Z,1005.05
2018-03-01T15:20:03.498Z,1004.99
2018-03-01T15:25:03.014Z,1004.96
2018-03-01T15:30:03.517Z,1004.94
2018-03-01T15:35:03.107Z,1004.89
2018-03-01T15:40:03.637Z,1004.78
2018-03-01T15:45:03.495Z,1004.79
2018-03-01T15:50:02.979Z,1004.75
2018-03-01T15:55:03.562Z,1004.76
2018-03-01T16:00:03.017Z,1004.62
2018-03-01T16:05:03.602Z,1004.59
2018-03-01T16:10:03.125Z,1004.65
2018-03-01T16:15:03.649Z,1004.74
2018-03-01T16:20:03.277Z,1004.65
2018-03-01T16:25:02.719Z,1004.73
2018-03-01T16:30:03.385Z,1004.68
2018-03-01T16:35:02.878Z,1004.78
2018-03-01T16:40:03.512Z,1004.7
2018-03-01T16:45:02.971Z,1004.67
2018-03-01T16:50:03.418Z,1004.58
2018-03-01T16:55:02.940Z,1004.87
2018-03-01T17:00:03.443Z,1004.76
2018-03-01T17:05:02.999Z,1004.73
2018-03-01T17:10:03.923Z,1004.81
2018-03-01T17:15:03.543Z,1004.72
2018-03-01T17:20:03.105Z,1004.8
2018-03-01T17:25:03.884Z,1004.87
2018-03-01T17:30:03.383Z,1004.91
2018-03-01T17:35:02.969Z,1004.84
2018-03-01T17:40:03.542Z,1004.96
2018-03-01T17:45:03.024Z,1004.95
2018-03-01T17:50:03.589Z,1004.92
2018-03-01T17:55:03.090Z,1004.82
2018-03-01T18:00:03.487Z,1004.86
2018-03-01T18:05:03.020Z,1004.97
2018-03-01T18:10:03.598Z,1005.14
2018-03-01T18:15:03.118Z,1005.14
2018-03-01T18:20:03.596Z,1004.97
2018-03-01T18:25:03.059Z,1005.09
2018-03-01T18:30:03.635Z,1004.89
2018-03-01T18:35:03.170Z,1004.87
2018-03-01T18:40:03.708Z,1004.65
2018-03-01T18:45:03.205Z,1004.6
2018-03-01T18:50:02.735Z,1004.55
2018-03-01T18:55:03.257Z,1004.63
2018-03-01T19:00:02.900Z,1004.55
2018-03-01T19:05:03.437Z,1004.54
2018-03-01T19:10:03.050Z,1004.58
2018-03-01T19:15:03.506Z,1004.59
2018-03-01T19:20:03.021Z,1004.62
2018-03-01T19:25:03.498Z,1004.67
2018-03-01T19:30:03.015Z,1004.59
2018-03-01T19:35:03.629Z,1004.54
2018-03-01T19:40:03.445Z,1004.6
2018-03-01T19:45:02.964Z,1004.67
2018-03-01T19:50:03.656Z,1004.5
2018-03-01T19:55:03.420Z,1004.51
2018-03-01T20:05:03.590Z,1004.42
2018-03-01T20:10:03.273Z,1004.52
2018-03-01T20:15:02.953Z,1004.24
2018-03-01T20:20:03.515Z,1004.3
2018-03-01T20:25:03.081Z,1004.29
2018-03-01T20:30:03.611Z,1004.23
2018-03-01T20:35:03.193Z,1004.28
2018-03-01T20:40:02.854Z,1004.16
2018-03-01T20:45:03.328Z,1004.22
2018-03-01T20:50:02.972Z,1004.13
2018-03-01T20:55:03.647Z,1004.08
2018-03-01T21:00:03.206Z,1004.12
2018-03-01T21:05:03.734Z,1004.03
2018-03-01T21:10:03.316Z,1003.92
2018-03-01T21:15:02.779Z,1003.96
2018-03-01T21:20:03.285Z,1003.92
2018-03-01T21:25:03.592Z,1003.8
2018-03-01T21:30:03.104Z,1003.83
2018-03-01T21:35:03.567Z,1003.66
2018-03-01T21:40:03.130Z,1003.7
2018-03-01T21:45:03.598Z,1003.7
2018-03-01T21:50:03.190Z,1003.68
2018-03-01T21:55:03.713Z,1003.75
2018-03-01T22:00:03.316Z,1003.62
2018-03-01T22:05:02.746Z,1003.6
2018-03-01T22:10:03.421Z,1003.63
2018-03-01T22:15:02.872Z,1003.64
2018-03-01T22:20:03.431Z,1003.62
2018-03-01T22:25:03.133Z,1003.64
2018-03-01T22:30:03.675Z,1003.67
2018-03-01T22:35:03.141Z,1003.53
2018-03-01T22:40:03.674Z,1003.55
2018-03-01T22:45:03.176Z,1003.41
2018-03-01T22:50:03.670Z,1003.37
2018-03-01T22:55:03.141Z,1003.21
2018-03-01T23:00:03.596Z,1003.19
2018-03-01T23:05:03.050Z,1003.19
2018-03-01T23:10:03.704Z,1003.2
2018-03-01T23:15:03.244Z,1003.21
2018-03-01T23:20:02.759Z,1003.27
2018-03-01T23:25:03.262Z,1003.16
2018-03-01T23:30:02.736Z,1003.17
2018-03-01T23:35:03.261Z,1003.33
2018-03-01T23:40:02.840Z,1003.22
2018-03-01T23:45:03.337Z,1003.17
2018-03-01T23:50:02.834Z,1003.24
2018-03-01T23:55:03.329Z,1003.27
